Hansa Visby — ELWR5 — position and weather

sailwx.info

Track history (hours):
 
Tides and Currents Weather Stations Pressure Air Temp Water Temp Dewpoint Dewpoint Depression Visibility Wind Speed Wind Dir Waves Ship Positions

Hansa Visby

Last reported at 2019-Oct-13 15:28 UTC. Time now 2019-Oct-13 23:37 UTC.
Position N 57°17' E 011°29'.

Length 156.9 m; beam 23 m; draft 9.5 m.

Type: Ship. MMSI: 636016167.

Date/timePositionNaut miles runAvg speedWind from/ knotsBaromVisibWave heightAir tempDewpointWater temp
2019-Oct-13 15:28N 57°17' E 011°29'714.8
2019-Oct-13 15:01N 57°24' E 011°25'815.1
2019-Oct-13 14:31N 57°30' E 011°18'815.7
2019-Oct-13 14:00N 57°36' E 011°07'816.2
2019-Oct-13 13:30N 57°41' E 010°56'816.0
2019-Oct-13 13:00N 57°46' E 010°45'917.1
2019-Oct-13 12:31N 57°47' E 010°29'916.7
2019-Oct-13 12:00N 57°47' E 010°13'816.6
2019-Oct-13 11:29N 57°46' E 009°57'1016.3
2019-Oct-13 10:54N 57°46' E 009°39'716.7
2019-Oct-13 10:30N 57°45' E 009°27'917.2
2019-Oct-13 10:00N 57°45' E 009°11'917.3
2019-Oct-13 09:30N 57°44' E 008°55'817.0
2019-Oct-13 09:01N 57°44' E 008°39'816.6
2019-Oct-13 08:31N 57°43' E 008°23'816.1
2019-Oct-13 08:01N 57°42' E 008°08'816.1
2019-Oct-13 07:31N 57°42' E 007°53'816.0
2019-Oct-13 07:00N 57°42' E 007°38'815.9
2019-Oct-13 06:30N 57°42' E 007°23'816.0
2019-Oct-13 06:00N 57°42' E 007°08'815.9
2019-Oct-13 05:31N 57°42' E 006°54'815.6
2019-Oct-13 05:00N 57°43' E 006°39'815.0
2019-Oct-13 04:30N 57°44' E 006°25'815.4
2019-Oct-13 04:00N 57°45' E 006°11'816.1
2019-Oct-13 03:30N 57°46' E 005°56'816.3
2019-Oct-13 03:00N 57°48' E 005°41'816.5
2019-Oct-13 02:30N 57°49' E 005°26'816.3
2019-Oct-13 02:00N 57°51' E 005°11'816.4
2019-Oct-13 01:30N 57°53' E 004°55'816.2
2019-Oct-13 01:00N 57°54' E 004°40'816.0
2019-Oct-13 00:30N 57°56' E 004°25'816.3
2019-Oct-12 23:59N 57°57' E 004°10'816.5
2019-Oct-12 23:29N 57°59' E 003°55'20816.2
2019-Oct-12 10:38N 58°42' W 002°34'216.4
2019-Oct-12 10:30N 58°42' W 002°38'817.0
2019-Oct-12 10:00N 58°42' W 002°54'1019.2
2019-Oct-12 09:30N 58°42' W 003°13'918.2
2019-Oct-12 09:00N 58°42' W 003°30'917.6
2019-Oct-12 08:31N 58°42' W 003°47'917.5
2019-Oct-12 08:00N 58°42' W 004°04'917.4
2019-Oct-12 07:30N 58°42' W 004°21'918.0
2019-Oct-12 06:59N 58°41' W 004°39'1817.0
2019-Oct-12 05:56N 58°36' W 005°12'818.0
2019-Oct-12 05:30N 58°30' W 005°19'917.6
2019-Oct-12 05:00N 58°22' W 005°28'1117.2
2019-Oct-12 04:23N 58°13' W 005°39'617.2
2019-Oct-12 04:00N 58°08' W 005°45'917.1
2019-Oct-12 03:29N 58°00' W 005°54'1017.2
2019-Oct-12 02:55N 57°52' W 006°03'5716.0
2019-Oct-11 23:21N 57°03' W 006°58'  
Track history (hours):
 
Tides and Currents Weather Stations Pressure Air Temp Water Temp Dewpoint Dewpoint Depression Visibility Wind Speed Wind Dir Waves Ship Positions

Hansa Visby

Last reported at 2019-Oct-13 15:28 UTC. Time now 2019-Oct-13 23:37 UTC.
Position N 57°17' E 011°29'.

Length 156.9 m; beam 23 m; draft 9.5 m.

Type: Ship. MMSI: 636016167.

Date/timePositionNaut miles runAvg speedWind from/ knotsBaromVisibWave heightAir tempDewpointWater temp
2019-Oct-13 15:28N 57°17' E 011°29'714.8
2019-Oct-13 15:01N 57°24' E 011°25'815.1
2019-Oct-13 14:31N 57°30' E 011°18'815.7
2019-Oct-13 14:00N 57°36' E 011°07'816.2
2019-Oct-13 13:30N 57°41' E 010°56'816.0
2019-Oct-13 13:00N 57°46' E 010°45'917.1
2019-Oct-13 12:31N 57°47' E 010°29'916.7
2019-Oct-13 12:00N 57°47' E 010°13'816.6
2019-Oct-13 11:29N 57°46' E 009°57'1016.3
2019-Oct-13 10:54N 57°46' E 009°39'716.7
2019-Oct-13 10:30N 57°45' E 009°27'917.2
2019-Oct-13 10:00N 57°45' E 009°11'917.3
2019-Oct-13 09:30N 57°44' E 008°55'817.0
2019-Oct-13 09:01N 57°44' E 008°39'816.6
2019-Oct-13 08:31N 57°43' E 008°23'816.1
2019-Oct-13 08:01N 57°42' E 008°08'816.1
2019-Oct-13 07:31N 57°42' E 007°53'816.0
2019-Oct-13 07:00N 57°42' E 007°38'815.9
2019-Oct-13 06:30N 57°42' E 007°23'816.0
2019-Oct-13 06:00N 57°42' E 007°08'815.9
2019-Oct-13 05:31N 57°42' E 006°54'815.6
2019-Oct-13 05:00N 57°43' E 006°39'815.0
2019-Oct-13 04:30N 57°44' E 006°25'815.4
2019-Oct-13 04:00N 57°45' E 006°11'816.1
2019-Oct-13 03:30N 57°46' E 005°56'816.3
2019-Oct-13 03:00N 57°48' E 005°41'816.5
2019-Oct-13 02:30N 57°49' E 005°26'816.3
2019-Oct-13 02:00N 57°51' E 005°11'816.4
2019-Oct-13 01:30N 57°53' E 004°55'816.2
2019-Oct-13 01:00N 57°54' E 004°40'816.0
2019-Oct-13 00:30N 57°56' E 004°25'816.3
2019-Oct-12 23:59N 57°57' E 004°10'816.5
2019-Oct-12 23:29N 57°59' E 003°55'20816.2
2019-Oct-12 10:38N 58°42' W 002°34'216.4
2019-Oct-12 10:30N 58°42' W 002°38'817.0
2019-Oct-12 10:00N 58°42' W 002°54'1019.2
2019-Oct-12 09:30N 58°42' W 003°13'918.2
2019-Oct-12 09:00N 58°42' W 003°30'917.6
2019-Oct-12 08:31N 58°42' W 003°47'917.5
2019-Oct-12 08:00N 58°42' W 004°04'917.4
2019-Oct-12 07:30N 58°42' W 004°21'918.0
2019-Oct-12 06:59N 58°41' W 004°39'1817.0
2019-Oct-12 05:56N 58°36' W 005°12'818.0
2019-Oct-12 05:30N 58°30' W 005°19'917.6
2019-Oct-12 05:00N 58°22' W 005°28'1117.2
2019-Oct-12 04:23N 58°13' W 005°39'617.2
2019-Oct-12 04:00N 58°08' W 005°45'917.1
2019-Oct-12 03:29N 58°00' W 005°54'1017.2
2019-Oct-12 02:55N 57°52' W 006°03'5716.0
2019-Oct-11 23:21N 57°03' W 006°58'  

Dump ship's entire track history